Time;durP1;ratioP1;P1;durP2;ratioP2;P2;SDS_P1;SDS_P2;PMS_P1;PMS_P2;Temp;Humidity;BMP_temperature;BMP_pressure;BME280_temperature;BME280_humidity;BME280_pressure;Samples;Min_cycle;Max_cycle;Signal;HPM_P1;HPM_P2
2022/07/11 00:02:24;;;;;;;4.57;4.23;;;16.30;99.90;;;;;;5082618;28;20185;-52
2022/07/11 00:04:50;;;;;;;4.10;3.87;;;16.20;99.90;;;;;;5082699;28;20186;-52
2022/07/11 00:07:16;;;;;;;4.50;3.90;;;16.20;99.90;;;;;;5088915;28;20216;-51
2022/07/11 00:09:42;;;;;;;4.53;4.23;;;16.30;99.90;;;;;;5083282;28;20432;-49
2022/07/11 00:12:08;;;;;;;4.40;4.10;;;16.20;99.90;;;;;;5089641;28;20439;-50
2022/07/11 00:14:34;;;;;;;4.07;3.67;;;16.30;99.90;;;;;;5086298;28;20186;-50
2022/07/11 00:17:00;;;;;;;3.87;3.63;;;16.30;99.90;;;;;;5089740;28;20409;-53
2022/07/11 00:19:26;;;;;;;4.67;4.27;;;16.30;99.90;;;;;;5086324;28;20450;-52
2022/07/11 00:21:52;;;;;;;4.37;4.07;;;16.30;99.90;;;;;;5089478;28;20186;-50
2022/07/11 00:24:19;;;;;;;4.23;3.93;;;16.30;99.90;;;;;;5059457;28;20213;-49
2022/07/11 00:26:46;;;;;;;4.80;4.40;;;16.20;99.90;;;;;;5090259;28;20468;-50
2022/07/11 00:29:11;;;;;;;4.00;3.70;;;16.20;99.90;;;;;;5087406;28;20989;-51
2022/07/11 00:31:37;;;;;;;4.93;4.63;;;16.20;99.90;;;;;;5089581;28;20406;-53
2022/07/11 00:34:03;;;;;;;4.50;4.00;;;16.10;99.90;;;;;;5080360;28;20187;-48
2022/07/11 00:36:28;;;;;;;3.93;3.63;;;16.10;99.90;;;;;;5080378;28;20277;-49
2022/07/11 00:38:55;;;;;;;8.20;4.40;;;16.00;99.90;;;;;;5083311;28;20220;-54
2022/07/11 00:41:21;;;;;;;4.07;3.77;;;16.00;99.90;;;;;;5087276;28;20191;-53
2022/07/11 00:43:53;;;;;;;3.90;3.70;;;15.90;99.90;;;;;;5074974;28;20432;-51
2022/07/11 00:46:19;;;;;;;4.37;4.00;;;15.80;99.90;;;;;;5090990;28;20467;-47
2022/07/11 00:48:44;;;;;;;5.63;4.10;;;15.80;99.90;;;;;;5062589;28;20438;-48
2022/07/11 00:51:10;;;;;;;5.43;4.40;;;15.80;99.90;;;;;;5089891;28;20434;-54
2022/07/11 00:53:36;;;;;;;4.17;3.80;;;15.80;99.90;;;;;;5082405;28;20180;-52
2022/07/11 00:56:02;;;;;;;4.43;4.03;;;15.70;99.90;;;;;;5088647;28;20429;-54
2022/07/11 00:58:28;;;;;;;4.20;3.67;;;15.70;99.90;;;;;;5088901;28;20186;-51
2022/07/11 01:00:56;;;;;;;3.77;3.47;;;15.60;99.90;;;;;;5087479;28;20473;-54
2022/07/11 01:03:22;;;;;;;4.13;3.83;;;15.50;99.90;;;;;;5083594;28;21173;-53
2022/07/11 01:05:47;;;;;;;3.80;3.50;;;15.50;99.90;;;;;;5089536;28;20487;-52
2022/07/11 01:08:13;;;;;;;3.60;3.40;;;15.40;99.90;;;;;;5086476;28;20208;-49
2022/07/11 01:10:39;;;;;;;4.43;3.70;;;15.40;99.90;;;;;;5089428;28;20268;-50
2022/07/11 01:13:04;;;;;;;3.53;3.23;;;15.40;99.90;;;;;;5084676;28;20648;-49
2022/07/11 01:15:34;;;;;;;4.00;3.60;;;15.20;99.90;;;;;;5085120;28;20231;-47
2022/07/11 01:18:00;;;;;;;4.00;3.70;;;15.10;99.90;;;;;;5086141;28;20183;-50
2022/07/11 01:20:27;;;;;;;3.80;3.50;;;15.10;99.90;;;;;;5087238;28;21151;-51
2022/07/11 01:22:57;;;;;;;3.77;3.47;;;15.10;99.90;;;;;;5061313;28;20186;-50
2022/07/11 01:25:31;;;;;;;4.53;4.10;;;15.00;99.90;;;;;;5089437;28;20765;-54
2022/07/11 01:27:59;;;;;;;4.20;3.80;;;14.90;99.90;;;;;;5060689;28;20455;-52
2022/07/11 01:30:29;;;;;;;4.00;3.70;;;14.90;99.90;;;;;;5087300;28;20436;-51
2022/07/11 01:32:56;;;;;;;3.93;3.63;;;14.90;99.90;;;;;;5085377;28;20984;-53
2022/07/11 01:35:22;;;;;;;3.80;3.50;;;14.80;99.90;;;;;;5068172;28;20428;-52
2022/07/11 01:37:48;;;;;;;4.03;3.40;;;14.80;99.90;;;;;;5088160;28;20557;-55
2022/07/11 01:40:14;;;;;;;4.40;4.10;;;14.70;99.90;;;;;;5086117;28;20443;-49
2022/07/11 01:42:40;;;;;;;4.10;3.67;;;14.70;99.90;;;;;;5083052;28;20979;-50
2022/07/11 01:45:06;;;;;;;8.43;3.63;;;14.70;99.90;;;;;;5084366;28;20249;-48
2022/07/11 01:47:32;;;;;;;3.77;3.47;;;14.70;99.90;;;;;;5089556;28;21122;-51
2022/07/11 01:49:58;;;;;;;3.37;3.10;;;14.70;99.90;;;;;;5083287;28;20469;-52
2022/07/11 01:52:23;;;;;;;3.87;3.57;;;14.60;99.90;;;;;;5087707;28;20187;-53
2022/07/11 01:54:49;;;;;;;4.23;3.80;;;14.50;99.90;;;;;;5078513;28;20307;-50
2022/07/11 01:57:15;;;;;;;4.10;3.80;;;14.50;99.90;;;;;;5089257;28;20279;-54
2022/07/11 01:59:41;;;;;;;5.20;3.80;;;14.40;99.90;;;;;;5081910;28;20489;-54
2022/07/11 02:02:07;;;;;;;3.60;3.23;;;14.40;99.90;;;;;;5088252;28;20439;-51
2022/07/11 02:04:32;;;;;;;3.80;3.20;;;14.40;99.90;;;;;;5079635;28;20181;-52
2022/07/11 02:06:58;;;;;;;4.63;3.43;;;14.40;99.90;;;;;;5087919;28;20227;-51
2022/07/11 02:09:24;;;;;;;4.57;3.37;;;14.40;99.90;;;;;;5081659;28;20652;-50
2022/07/11 02:11:49;;;;;;;3.50;3.20;;;14.30;99.90;;;;;;5084337;28;20209;-49
2022/07/11 02:14:15;;;;;;;3.43;3.07;;;14.30;99.90;;;;;;5076860;28;20489;-49
2022/07/11 02:16:41;;;;;;;3.60;3.30;;;14.30;99.90;;;;;;5093751;28;20259;-54
2022/07/11 02:19:07;;;;;;;5.67;3.50;;;14.30;99.90;;;;;;5087101;28;20192;-50
2022/07/11 02:21:33;;;;;;;6.53;3.93;;;14.30;99.90;;;;;;5104158;28;20322;-50
2022/07/11 02:23:59;;;;;;;3.37;3.17;;;14.40;99.90;;;;;;5067521;28;20928;-48
2022/07/11 02:26:25;;;;;;;3.97;3.60;;;14.40;99.90;;;;;;5088152;28;20477;-51
2022/07/11 02:28:50;;;;;;;6.20;3.53;;;14.40;99.90;;;;;;5078557;28;20434;-51
2022/07/11 02:31:16;;;;;;;3.57;3.30;;;14.40;99.90;;;;;;5083440;28;20446;-53
2022/07/11 02:33:42;;;;;;;3.87;3.50;;;14.40;99.90;;;;;;5081564;28;20177;-54
2022/07/11 02:36:08;;;;;;;4.20;3.07;;;14.30;99.90;;;;;;5082232;28;20707;-52
2022/07/11 02:38:34;;;;;;;3.60;3.23;;;14.30;99.90;;;;;;5082307;28;20418;-54
2022/07/11 02:41:00;;;;;;;5.00;3.43;;;14.30;99.90;;;;;;5083590;28;20930;-51
2022/07/11 02:43:26;;;;;;;3.90;3.50;;;14.30;99.90;;;;;;5090206;28;20502;-52
2022/07/11 02:45:52;;;;;;;4.60;3.40;;;14.30;99.90;;;;;;5090071;28;21155;-52
2022/07/11 02:48:17;;;;;;;4.77;3.70;;;14.20;99.90;;;;;;5079172;28;20527;-50
2022/07/11 02:50:43;;;;;;;3.70;3.40;;;14.20;99.90;;;;;;5086766;28;20635;-50
2022/07/11 02:53:09;;;;;;;3.83;3.53;;;14.30;99.90;;;;;;5076898;28;20181;-51
2022/07/11 02:55:34;;;;;;;4.03;3.60;;;14.30;99.90;;;;;;5091094;28;20192;-51
2022/07/11 02:58:00;;;;;;;3.67;3.37;;;14.20;99.90;;;;;;5078151;28;20181;-53
2022/07/11 03:00:26;;;;;;;3.63;3.30;;;14.20;99.90;;;;;;5083681;28;20235;-49
2022/07/11 03:02:52;;;;;;;3.50;3.20;;;14.20;99.90;;;;;;5087283;28;20268;-54
2022/07/11 03:05:17;;;;;;;3.57;3.30;;;14.20;99.90;;;;;;5090892;28;20565;-54
2022/07/11 03:07:43;;;;;;;3.63;3.33;;;14.20;99.90;;;;;;5086872;28;20329;-51
2022/07/11 03:10:09;;;;;;;3.80;3.50;;;14.20;99.90;;;;;;5091625;28;20170;-49
2022/07/11 03:12:35;;;;;;;3.30;3.10;;;14.20;99.90;;;;;;5087866;28;20530;-53
2022/07/11 03:15:00;;;;;;;3.50;3.30;;;14.30;99.90;;;;;;5089593;28;20431;-53
2022/07/11 03:17:26;;;;;;;3.70;3.40;;;14.30;99.90;;;;;;5086949;28;20189;-53
2022/07/11 03:19:52;;;;;;;4.30;3.53;;;14.30;99.90;;;;;;5091588;28;20276;-51
2022/07/11 03:22:18;;;;;;;4.57;3.57;;;14.30;99.90;;;;;;5087924;28;20185;-54
2022/07/11 03:24:44;;;;;;;3.70;3.40;;;14.30;99.90;;;;;;5078006;28;20438;-54
2022/07/11 03:27:10;;;;;;;3.43;3.10;;;14.30;99.90;;;;;;5089012;28;20219;-52
2022/07/11 03:29:36;;;;;;;3.67;3.37;;;14.40;99.90;;;;;;5090991;28;20176;-51
2022/07/11 03:32:01;;;;;;;5.60;3.63;;;14.40;99.90;;;;;;5087191;28;20426;-53
2022/07/11 03:34:27;;;;;;;3.90;3.57;;;14.40;99.90;;;;;;5087476;28;20212;-49
2022/07/11 03:36:53;;;;;;;3.57;3.27;;;14.50;99.90;;;;;;5089850;28;20254;-50
2022/07/11 03:39:20;;;;;;;5.90;3.80;;;14.50;99.90;;;;;;5087487;28;20177;-49
2022/07/11 03:41:46;;;;;;;3.57;3.30;;;14.50;99.90;;;;;;5099484;28;20442;-52
2022/07/11 03:44:12;;;;;;;3.90;3.60;;;14.50;99.90;;;;;;5089336;28;20457;-52
2022/07/11 03:46:38;;;;;;;3.90;3.50;;;14.60;99.90;;;;;;5090791;28;20663;-51
2022/07/11 03:49:04;;;;;;;3.70;3.40;;;14.70;99.90;;;;;;5103714;28;20733;-50
2022/07/11 03:51:29;;;;;;;3.90;3.50;;;14.70;99.90;;;;;;5088007;28;20502;-51
2022/07/11 03:53:55;;;;;;;4.90;4.33;;;14.80;99.90;;;;;;5088739;28;20426;-52
2022/07/11 03:56:22;;;;;;;3.47;3.17;;;14.70;99.90;;;;;;5090930;28;20177;-51
2022/07/11 03:58:49;;;;;;;4.00;3.70;;;14.70;99.90;;;;;;5087074;28;20940;-51
2022/07/11 04:01:15;;;;;;;5.90;3.43;;;14.70;99.90;;;;;;5081758;28;20504;-52
2022/07/11 04:03:40;;;;;;;4.00;3.57;;;14.80;99.90;;;;;;5077345;28;20436;-52
2022/07/11 04:06:06;;;;;;;3.73;3.40;;;14.80;99.90;;;;;;5088806;28;20453;-51
2022/07/11 04:08:31;;;;;;;3.30;3.07;;;14.80;99.90;;;;;;5091611;28;20623;-49
2022/07/11 04:10:57;;;;;;;4.70;3.40;;;14.80;99.90;;;;;;5086980;28;20177;-56
2022/07/11 04:13:22;;;;;;;4.10;3.70;;;14.90;99.90;;;;;;5079533;28;20188;-50
2022/07/11 04:15:48;;;;;;;4.17;3.70;;;14.80;99.90;;;;;;5079945;28;20321;-54
2022/07/11 04:18:14;;;;;;;3.63;3.30;;;14.70;99.90;;;;;;5086119;28;20177;-50
2022/07/11 04:20:40;;;;;;;4.10;3.20;;;14.70;99.90;;;;;;5090296;28;20226;-55
2022/07/11 04:23:06;;;;;;;5.40;3.30;;;14.60;99.90;;;;;;5088294;28;20460;-48
2022/07/11 04:25:33;;;;;;;4.23;3.10;;;14.50;99.90;;;;;;5081843;28;20727;-47
2022/07/11 04:27:59;;;;;;;3.60;3.30;;;14.60;99.90;;;;;;5086222;28;20462;-48
2022/07/11 04:30:24;;;;;;;5.83;3.37;;;14.50;99.90;;;;;;5090348;28;20422;-48
2022/07/11 04:32:50;;;;;;;5.83;3.57;;;14.40;99.90;;;;;;5067202;28;20277;-49
2022/07/11 04:35:17;;;;;;;5.17;3.63;;;14.40;99.90;;;;;;5087657;28;20665;-49
2022/07/11 04:37:43;;;;;;;3.70;3.50;;;14.40;99.90;;;;;;5089173;28;20177;-48
2022/07/11 04:40:09;;;;;;;4.47;3.53;;;14.40;99.90;;;;;;5088548;28;20443;-53
2022/07/11 04:42:35;;;;;;;4.83;3.60;;;14.40;99.90;;;;;;5085449;28;20753;-50
2022/07/11 04:45:00;;;;;;;6.07;3.70;;;14.30;99.90;;;;;;5090201;28;20945;-52
2022/07/11 04:47:26;;;;;;;3.93;3.53;;;14.30;99.90;;;;;;5088586;28;20265;-52
2022/07/11 04:49:52;;;;;;;5.10;3.80;;;14.30;99.90;;;;;;5087632;28;20185;-53
2022/07/11 04:52:17;;;;;;;6.37;3.83;;;14.40;99.90;;;;;;5084830;28;20200;-53
2022/07/11 04:54:43;;;;;;;3.80;3.40;;;14.30;99.90;;;;;;5074421;28;20702;-53
2022/07/11 04:57:09;;;;;;;6.33;4.17;;;14.40;99.90;;;;;;5085456;28;20191;-51
2022/07/11 04:59:35;;;;;;;4.53;3.57;;;14.30;99.90;;;;;;5079230;28;20695;-50
2022/07/11 05:02:00;;;;;;;6.07;4.03;;;14.40;99.90;;;;;;5084406;28;20181;-52
2022/07/11 05:04:26;;;;;;;4.17;3.60;;;14.40;99.90;;;;;;5076316;28;20185;-52
2022/07/11 05:06:51;;;;;;;3.83;3.53;;;14.40;99.90;;;;;;5081481;28;20223;-50
2022/07/11 05:09:17;;;;;;;4.63;3.50;;;14.50;99.90;;;;;;5075951;28;20188;-50
2022/07/11 05:11:43;;;;;;;5.97;3.70;;;14.50;99.90;;;;;;5086945;28;21035;-51
2022/07/11 05:14:09;;;;;;;5.17;3.93;;;14.50;99.90;;;;;;5081341;28;20181;-54
2022/07/11 05:16:34;;;;;;;4.57;3.77;;;14.50;99.90;;;;;;5080923;28;20177;-49
2022/07/11 05:19:00;;;;;;;4.93;3.80;;;14.60;99.90;;;;;;5081919;28;20298;-53
2022/07/11 05:21:25;;;;;;;4.83;3.43;;;14.60;99.90;;;;;;5079579;28;20185;-51
2022/07/11 05:23:51;;;;;;;4.37;3.40;;;14.70;99.90;;;;;;5085146;28;20553;-54
2022/07/11 05:26:17;;;;;;;6.40;3.47;;;14.60;99.90;;;;;;5084411;28;20234;-51
2022/07/11 05:28:42;;;;;;;3.83;3.43;;;14.70;99.90;;;;;;5088333;28;20177;-52
2022/07/11 05:31:08;;;;;;;5.07;3.60;;;14.80;99.90;;;;;;5089562;28;20204;-52
2022/07/11 05:33:34;;;;;;;4.30;3.67;;;14.80;99.90;;;;;;5081969;28;20326;-54
2022/07/11 05:36:01;;;;;;;5.43;4.10;;;14.90;99.90;;;;;;5077337;28;20178;-50
2022/07/11 05:38:26;;;;;;;4.43;3.50;;;14.80;99.90;;;;;;5080545;28;20449;-49
2022/07/11 05:40:52;;;;;;;3.90;3.43;;;14.80;99.90;;;;;;5078067;28;20443;-54
2022/07/11 05:43:18;;;;;;;3.40;3.10;;;14.90;99.90;;;;;;5081685;28;20641;-50
2022/07/11 05:45:43;;;;;;;6.00;3.87;;;14.90;99.90;;;;;;5088628;28;20216;-54
2022/07/11 05:48:09;;;;;;;7.40;3.37;;;15.00;99.90;;;;;;5079672;28;20194;-54
2022/07/11 05:50:35;;;;;;;4.87;3.60;;;15.00;99.90;;;;;;5084582;28;20185;-50
2022/07/11 05:53:02;;;;;;;3.90;3.10;;;15.00;99.90;;;;;;5085576;28;20169;-52
2022/07/11 05:55:31;;;;;;;5.57;3.80;;;15.00;99.90;;;;;;5088211;28;20415;-53
2022/07/11 05:57:56;;;;;;;3.90;3.60;;;15.00;99.90;;;;;;5077554;28;20439;-50
2022/07/11 06:00:25;;;;;;;3.90;3.50;;;15.10;99.90;;;;;;5072184;28;20471;-54
2022/07/11 06:02:51;;;;;;;4.53;3.70;;;15.30;99.90;;;;;;5086683;28;20173;-50
2022/07/11 06:05:16;;;;;;;5.70;3.80;;;15.30;99.90;;;;;;5089875;28;21006;-50
2022/07/11 06:10:27;;;;;;;5.53;3.77;;;15.30;99.90;;;;;;5084362;28;20230;-48
2022/07/11 06:12:54;;;;;;;4.43;3.97;;;15.40;99.90;;;;;;5087371;28;20990;-46
2022/07/11 06:15:20;;;;;;;4.10;3.63;;;15.40;99.90;;;;;;5083767;28;20497;-46
2022/07/11 06:17:46;;;;;;;4.00;3.60;;;15.50;99.90;;;;;;5084204;28;20828;-51
2022/07/11 06:20:12;;;;;;;4.70;3.60;;;15.50;99.90;;;;;;5085327;28;20635;-49
2022/07/11 06:22:38;;;;;;;4.00;3.53;;;15.50;99.90;;;;;;5084306;28;20183;-47
2022/07/11 06:25:04;;;;;;;6.00;3.97;;;15.60;99.90;;;;;;5087130;28;20557;-49
2022/07/11 06:27:29;;;;;;;4.07;3.60;;;15.60;99.90;;;;;;5083791;28;20371;-50
2022/07/11 06:29:55;;;;;;;5.73;4.20;;;15.70;99.90;;;;;;5085760;28;20424;-52
2022/07/11 06:32:21;;;;;;;3.80;3.30;;;15.80;99.90;;;;;;5088704;28;20203;-50
2022/07/11 06:34:46;;;;;;;4.70;3.83;;;15.90;99.90;;;;;;5077456;28;20183;-48
2022/07/11 06:37:12;;;;;;;5.33;4.00;;;16.00;99.90;;;;;;5088752;28;20197;-51
2022/07/11 06:39:37;;;;;;;5.57;3.67;;;16.00;99.90;;;;;;5090262;28;20265;-51
2022/07/11 06:42:03;;;;;;;4.90;3.47;;;16.10;99.90;;;;;;5088319;28;20686;-48
2022/07/11 06:44:28;;;;;;;4.33;3.83;;;16.40;99.90;;;;;;5084489;28;20217;-52
2022/07/11 06:46:54;;;;;;;4.40;4.00;;;16.50;99.90;;;;;;5068902;28;20203;-49
2022/07/11 06:49:20;;;;;;;4.57;3.20;;;16.70;99.90;;;;;;5060988;28;20193;-47
2022/07/11 06:51:45;;;;;;;4.27;3.87;;;16.80;99.90;;;;;;5085551;28;20277;-49
2022/07/11 06:54:11;;;;;;;4.47;3.67;;;17.00;99.90;;;;;;5089405;28;20193;-49
2022/07/11 06:56:36;;;;;;;4.00;3.63;;;17.20;99.10;;;;;;5088133;28;20552;-48
2022/07/11 06:59:02;;;;;;;3.93;3.30;;;17.20;99.00;;;;;;5086981;28;20267;-51
2022/07/11 07:01:28;;;;;;;3.43;3.20;;;17.30;98.50;;;;;;5071921;28;20658;-49
2022/07/11 07:03:53;;;;;;;6.90;3.90;;;17.30;98.20;;;;;;5087401;28;20185;-54
2022/07/11 07:06:19;;;;;;;3.97;3.57;;;17.40;97.80;;;;;;5089210;28;20200;-51
2022/07/11 07:08:45;;;;;;;3.77;3.40;;;17.40;97.10;;;;;;5090484;28;20220;-50
2022/07/11 07:11:11;;;;;;;7.37;3.83;;;17.40;97.60;;;;;;5087380;28;20184;-49
2022/07/11 07:13:37;;;;;;;4.00;3.70;;;17.50;96.90;;;;;;5082264;28;20550;-51
2022/07/11 07:16:02;;;;;;;4.30;3.57;;;17.30;97.20;;;;;;5084915;28;20741;-50
2022/07/11 07:18:28;;;;;;;3.80;3.20;;;17.30;97.40;;;;;;5071996;28;20190;-49
2022/07/11 07:20:54;;;;;;;3.87;3.57;;;17.40;97.10;;;;;;5071078;28;20194;-53
2022/07/11 07:23:20;;;;;;;4.20;3.40;;;17.50;96.70;;;;;;5073811;28;20275;-51
2022/07/11 07:25:45;;;;;;;3.80;3.57;;;17.80;95.80;;;;;;5060388;28;20382;-49
2022/07/11 07:28:11;;;;;;;5.37;3.90;;;17.90;95.70;;;;;;5085336;28;20470;-51
2022/07/11 07:30:37;;;;;;;4.77;3.63;;;17.90;95.00;;;;;;5092000;28;20196;-52
2022/07/11 07:33:02;;;;;;;4.23;3.93;;;18.00;94.70;;;;;;5090046;28;20189;-49
2022/07/11 07:35:28;;;;;;;4.20;3.80;;;17.90;94.60;;;;;;5076851;28;20205;-46
2022/07/11 07:37:54;;;;;;;3.80;3.50;;;17.90;95.00;;;;;;5073853;28;20997;-45
2022/07/11 07:40:20;;;;;;;4.57;4.13;;;17.90;95.00;;;;;;5087105;28;20509;-48
2022/07/11 07:42:46;;;;;;;5.13;4.00;;;17.90;93.80;;;;;;5088192;28;20200;-53
2022/07/11 07:45:12;;;;;;;4.43;4.03;;;18.00;93.10;;;;;;5085851;28;20696;-49
2022/07/11 07:47:37;;;;;;;5.50;3.97;;;18.00;93.60;;;;;;5086578;28;20226;-48
2022/07/11 07:50:05;;;;;;;4.03;3.73;;;17.90;93.70;;;;;;5086788;28;20244;-47
2022/07/11 07:52:30;;;;;;;4.83;3.90;;;17.90;94.40;;;;;;5090510;28;20222;-49
2022/07/11 07:54:56;;;;;;;4.00;3.73;;;18.00;94.20;;;;;;5088581;28;20862;-47
2022/07/11 07:57:22;;;;;;;4.07;3.70;;;18.10;94.00;;;;;;5085256;28;20225;-49
2022/07/11 07:59:47;;;;;;;4.30;3.90;;;18.20;94.10;;;;;;5092676;28;20498;-50
2022/07/11 08:02:13;;;;;;;4.40;4.10;;;18.10;91.80;;;;;;5098591;28;20185;-46
2022/07/11 08:04:38;;;;;;;4.40;4.00;;;18.00;91.40;;;;;;5087698;28;20196;-47
2022/07/11 08:07:04;;;;;;;4.77;4.20;;;17.90;91.80;;;;;;5089557;28;20204;-46
2022/07/11 08:09:30;;;;;;;4.30;3.70;;;17.90;92.40;;;;;;5088292;28;20272;-48
2022/07/11 08:11:55;;;;;;;5.27;3.83;;;17.90;92.30;;;;;;5089166;28;20216;-52
2022/07/11 08:14:22;;;;;;;4.27;3.87;;;18.00;92.30;;;;;;5089595;28;20688;-49
2022/07/11 08:16:48;;;;;;;4.23;3.83;;;18.10;92.70;;;;;;5088640;28;20185;-49
2022/07/11 08:19:14;;;;;;;3.60;3.40;;;18.40;92.20;;;;;;5089171;28;20976;-48
2022/07/11 08:21:40;;;;;;;3.77;3.47;;;18.60;91.40;;;;;;5088078;28;20480;-47
2022/07/11 08:24:06;;;;;;;4.00;3.70;;;18.80;90.90;;;;;;5089265;28;20458;-50
2022/07/11 08:26:32;;;;;;;4.20;3.90;;;19.10;87.80;;;;;;5087490;28;20733;-48
2022/07/11 08:28:58;;;;;;;4.53;3.80;;;18.90;88.20;;;;;;5087295;28;20448;-49
2022/07/11 08:31:24;;;;;;;4.30;3.67;;;18.80;88.50;;;;;;5102535;28;20410;-51
2022/07/11 08:33:51;;;;;;;4.03;3.70;;;18.90;86.90;;;;;;5089617;28;20209;-48
2022/07/11 08:36:17;;;;;;;3.87;3.67;;;19.00;84.60;;;;;;5088724;28;20443;-46
2022/07/11 08:38:46;;;;;;;4.07;3.77;;;18.90;82.40;;;;;;5088858;28;20431;-51
2022/07/11 08:41:12;;;;;;;3.73;3.27;;;19.10;81.20;;;;;;5087977;28;20583;-48
2022/07/11 08:43:40;;;;;;;4.27;3.97;;;19.20;79.80;;;;;;5088147;28;20513;-46
2022/07/11 08:46:07;;;;;;;4.17;3.83;;;19.40;81.30;;;;;;5088347;28;20795;-46
2022/07/11 08:48:33;;;;;;;4.30;4.00;;;19.80;80.70;;;;;;5088362;28;20843;-49
2022/07/11 08:50:59;;;;;;;3.97;3.60;;;20.20;79.70;;;;;;5086841;28;20472;-48
2022/07/11 08:53:27;;;;;;;4.37;3.97;;;20.20;79.40;;;;;;5088810;28;20427;-49
2022/07/11 08:55:53;;;;;;;6.23;3.80;;;20.10;78.30;;;;;;5086320;28;20534;-47
2022/07/11 08:58:19;;;;;;;4.43;4.13;;;19.90;79.30;;;;;;5088507;28;20506;-51
2022/07/11 09:00:45;;;;;;;3.70;3.50;;;19.90;79.20;;;;;;5088772;28;21032;-46
2022/07/11 09:03:15;;;;;;;4.53;4.13;;;19.90;76.80;;;;;;5088405;28;20514;-50
2022/07/11 09:05:42;;;;;;;4.47;4.20;;;19.90;75.10;;;;;;5081385;28;20447;-53
2022/07/11 09:08:08;;;;;;;5.03;4.20;;;20.10;75.40;;;;;;5087951;28;20463;-50
2022/07/11 09:10:37;;;;;;;4.33;4.03;;;20.30;75.20;;;;;;5088592;28;20430;-48
2022/07/11 09:13:05;;;;;;;4.93;4.53;;;20.50;76.30;;;;;;5097744;28;20186;-51
2022/07/11 09:15:35;;;;;;;4.47;4.17;;;21.00;72.20;;;;;;5085306;28;20433;-53
2022/07/11 09:18:02;;;;;;;3.80;3.50;;;21.20;67.60;;;;;;5085418;28;20442;-46
2022/07/11 09:25:19;;;;;;;4.60;4.30;;;21.30;68.30;;;;;;5088422;28;20777;-49
2022/07/11 09:26:05;;;;;;;4.90;3.37;;;22.00;63.10;;;;;;5098416;28;21013;-48
2022/07/11 09:28:31;;;;;;;4.37;3.77;;;22.10;57.40;;;;;;5088543;28;20513;-54
2022/07/11 09:30:56;;;;;;;4.30;4.00;;;22.00;58.90;;;;;;5090758;28;20466;-50
2022/07/11 09:33:22;;;;;;;4.00;3.80;;;22.50;59.20;;;;;;5088588;28;20234;-50
2022/07/11 09:35:47;;;;;;;4.00;3.80;;;23.20;57.50;;;;;;5086673;28;20229;-50
2022/07/11 09:38:21;;;;;;;3.80;3.50;;;23.80;53.50;;;;;;5088349;28;20224;-51
2022/07/11 09:40:48;;;;;;;4.83;4.57;;;24.30;50.00;;;;;;5095166;28;20626;-47
2022/07/11 09:43:14;;;;;;;4.40;4.10;;;23.70;48.50;;;;;;5087945;28;20446;-46
2022/07/11 09:45:41;;;;;;;4.10;3.80;;;23.60;49.80;;;;;;5087242;28;20468;-50
2022/07/11 09:48:12;;;;;;;4.00;3.70;;;24.00;51.20;;;;;;5084201;28;20502;-51
2022/07/11 09:50:39;;;;;;;4.33;4.10;;;24.80;47.40;;;;;;5084891;28;20746;-53
2022/07/11 09:53:06;;;;;;;4.37;4.07;;;25.00;44.50;;;;;;5090781;28;20446;-48
2022/07/11 09:55:36;;;;;;;4.30;4.00;;;25.10;45.30;;;;;;5090814;28;20792;-52
2022/07/11 09:58:06;;;;;;;4.50;4.20;;;25.40;43.80;;;;;;5090501;28;20421;-48
2022/07/11 10:00:32;;;;;;;3.67;3.33;;;25.80;43.20;;;;;;5091489;28;20472;-54
2022/07/11 10:02:59;;;;;;;3.73;3.53;;;25.90;42.60;;;;;;5098415;28;21023;-51
2022/07/11 10:05:26;;;;;;;4.63;4.23;;;26.00;39.40;;;;;;5091773;28;20531;-51
2022/07/11 10:07:51;;;;;;;3.70;3.43;;;25.20;40.40;;;;;;5092038;28;20451;-50
2022/07/11 10:10:18;;;;;;;3.40;3.20;;;25.20;40.90;;;;;;5090537;28;20956;-49
2022/07/11 10:12:45;;;;;;;3.67;3.47;;;25.30;39.90;;;;;;5092099;28;20210;-49
2022/07/11 10:15:11;;;;;;;4.23;3.93;;;25.40;39.90;;;;;;5079254;28;20493;-51
2022/07/11 10:18:05;;;;;;;3.80;3.60;;;25.00;41.50;;;;;;5091347;28;20413;-47
2022/07/11 10:20:36;;;;;;;3.60;3.40;;;24.80;40.80;;;;;;5090320;28;20566;-47
2022/07/11 10:23:13;;;;;;;3.93;3.73;;;24.60;40.30;;;;;;5089934;28;20450;-48
2022/07/11 10:26:12;;;;;;;3.80;3.50;;;25.40;40.40;;;;;;5106975;28;20422;-46
2022/07/11 10:28:44;;;;;;;3.23;3.03;;;26.20;40.00;;;;;;5071094;28;20880;-49
2022/07/11 10:31:28;;;;;;;3.43;3.23;;;26.80;39.20;;;;;;5053044;28;20460;-49
2022/07/11 10:34:10;;;;;;;3.50;3.20;;;27.10;36.50;;;;;;5070708;28;20827;-49
2022/07/11 10:36:45;;;;;;;3.33;3.17;;;26.60;36.40;;;;;;5071001;28;20413;-49
2022/07/11 10:39:24;;;;;;;3.60;3.40;;;26.10;35.80;;;;;;5069283;28;20917;-50
2022/07/11 10:41:51;;;;;;;4.10;3.37;;;25.90;37.80;;;;;;5089610;28;20408;-49
2022/07/11 10:44:17;;;;;;;4.00;3.80;;;26.70;36.50;;;;;;5088581;28;20445;-48
2022/07/11 10:46:43;;;;;;;3.90;3.70;;;27.60;36.00;;;;;;5090432;28;20454;-46
2022/07/11 10:49:15;;;;;;;3.93;3.70;;;28.30;34.60;;;;;;5090711;28;20410;-50
2022/07/11 10:51:52;;;;;;;4.07;3.87;;;29.20;32.40;;;;;;5094594;28;20425;-49
2022/07/11 10:54:33;;;;;;;3.83;3.63;;;29.50;31.40;;;;;;5095681;28;20866;-48
2022/07/11 10:57:26;;;;;;;4.00;3.70;;;30.10;30.10;;;;;;5087905;28;20431;-50
2022/07/11 10:59:56;;;;;;;3.70;3.50;;;30.80;27.90;;;;;;5093995;28;21036;-46
2022/07/11 11:02:22;;;;;;;4.10;3.60;;;30.80;26.70;;;;;;5103779;28;20541;-49
2022/07/11 11:04:58;;;;;;;4.10;3.80;;;30.50;26.60;;;;;;5095708;28;20521;-49
2022/07/11 11:07:32;;;;;;;4.00;3.80;;;30.20;27.10;;;;;;5090319;28;20212;-48
2022/07/11 11:09:59;;;;;;;3.60;3.50;;;30.80;26.70;;;;;;5088430;28;20533;-49
2022/07/11 11:13:11;;;;;;;4.00;3.80;;;31.00;26.80;;;;;;5089772;28;20434;-49
2022/07/11 11:15:49;;;;;;;3.20;3.00;;;30.30;25.80;;;;;;5089539;28;20984;-48
2022/07/11 11:18:23;;;;;;;3.37;3.17;;;29.70;26.70;;;;;;5089768;28;20419;-51
2022/07/11 11:21:07;;;;;;;3.87;3.47;;;29.20;26.90;;;;;;5091715;28;20950;-53
2022/07/11 11:23:37;;;;;;;3.70;3.40;;;29.10;26.20;;;;;;5093811;28;20443;-48
2022/07/11 11:26:12;;;;;;;3.67;3.23;;;29.00;27.80;;;;;;5087628;28;20548;-48
2022/07/11 11:28:53;;;;;;;3.97;3.67;;;29.40;26.70;;;;;;5089703;28;20494;-49
2022/07/11 11:31:20;;;;;;;3.67;3.47;;;30.10;25.90;;;;;;5089797;28;20430;-48
2022/07/11 11:33:47;;;;;;;3.60;3.30;;;30.90;25.10;;;;;;5094006;28;20444;-47
2022/07/11 11:36:16;;;;;;;3.33;3.13;;;31.50;24.50;;;;;;5070571;28;20450;-47
2022/07/11 11:38:42;;;;;;;3.90;3.60;;;31.70;24.30;;;;;;5087748;28;20435;-50
2022/07/11 11:41:08;;;;;;;4.37;3.60;;;32.00;23.90;;;;;;5089208;28;20513;-51
2022/07/11 11:43:37;;;;;;;3.83;3.53;;;32.20;24.10;;;;;;5089411;28;20940;-52
2022/07/11 11:46:03;;;;;;;4.17;3.97;;;32.40;22.60;;;;;;5088908;28;20211;-52
2022/07/11 11:48:30;;;;;;;3.50;3.40;;;32.00;23.70;;;;;;5089249;28;20462;-48
2022/07/11 11:51:07;;;;;;;3.10;2.90;;;31.90;23.10;;;;;;5083754;28;20925;-52
2022/07/11 11:53:40;;;;;;;3.27;3.17;;;32.30;22.70;;;;;;5089165;28;20495;-48
2022/07/11 11:56:32;;;;;;;3.40;3.30;;;33.10;21.80;;;;;;5093019;28;20773;-47
2022/07/11 11:59:09;;;;;;;3.77;3.33;;;33.10;20.30;;;;;;5089135;28;20458;-50
2022/07/11 12:01:37;;;;;;;4.17;3.87;;;32.90;21.30;;;;;;5048066;28;20867;-50
2022/07/11 12:04:11;;;;;;;3.60;3.37;;;32.90;21.40;;;;;;5048754;28;20465;-51
2022/07/11 12:06:41;;;;;;;3.80;3.60;;;33.30;21.50;;;;;;5047239;28;20433;-47
2022/07/11 12:09:12;;;;;;;3.80;3.50;;;33.60;20.40;;;;;;5048555;28;20436;-49
2022/07/11 12:11:42;;;;;;;3.50;2.97;;;33.30;19.50;;;;;;5047748;28;20437;-48
2022/07/11 12:14:10;;;;;;;3.23;3.03;;;32.70;20.20;;;;;;5047557;28;20878;-51
2022/07/11 12:16:46;;;;;;;3.77;3.57;;;32.00;20.20;;;;;;5045766;28;20440;-50
2022/07/11 12:19:18;;;;;;;3.10;2.90;;;31.30;21.30;;;;;;5048521;28;20767;-48
2022/07/11 12:21:47;;;;;;;3.23;2.90;;;30.70;23.30;;;;;;5050351;28;20439;-50
2022/07/11 12:24:16;;;;;;;3.87;3.67;;;31.20;22.70;;;;;;5047094;28;20503;-51
2022/07/11 12:26:42;;;;;;;3.30;3.20;;;31.90;21.90;;;;;;5048008;28;20467;-50
2022/07/11 12:29:19;;;;;;;2.90;2.80;;;32.50;20.70;;;;;;5042529;28;20930;-50
2022/07/11 12:31:49;;;;;;;3.10;2.90;;;31.70;20.40;;;;;;5048023;28;20967;-54
2022/07/11 12:34:16;;;;;;;3.60;3.40;;;32.10;20.60;;;;;;5046227;28;20433;-48
2022/07/11 12:36:42;;;;;;;3.30;3.20;;;32.80;20.10;;;;;;5063182;28;20757;-51
2022/07/11 12:39:08;;;;;;;3.90;3.60;;;32.70;19.10;;;;;;5047455;28;20452;-47
2022/07/11 12:41:34;;;;;;;2.90;2.80;;;33.00;18.80;;;;;;5048228;28;20429;-51
2022/07/11 12:46:48;;;;;;;3.30;3.10;;;33.70;18.90;;;;;;5047298;28;20538;-47
2022/07/11 12:49:15;;;;;;;3.17;2.50;;;32.60;18.80;;;;;;5047715;28;20873;-49
2022/07/11 12:51:42;;;;;;;2.83;2.43;;;31.30;21.40;;;;;;5048565;28;20837;-51
2022/07/11 12:54:13;;;;;;;2.93;2.77;;;31.30;20.40;;;;;;5050027;28;20794;-52
2022/07/11 12:56:39;;;;;;;3.10;2.83;;;31.70;19.90;;;;;;5046738;28;20435;-48
2022/07/11 12:59:06;;;;;;;2.57;2.37;;;32.10;19.90;;;;;;5044206;28;20429;-49